createdAt,value
2018-07-17T06:01:53.941Z,40.1
2018-07-17T06:02:43.917Z,40.6
2018-07-17T06:03:34.018Z,40.9
2018-07-17T06:04:23.791Z,41.4
2018-07-17T06:05:13.875Z,41.8
2018-07-17T06:06:04.193Z,42.1
2018-07-17T06:06:53.967Z,42.5
2018-07-17T06:07:44.307Z,42.9
2018-07-17T06:08:34.396Z,43.3
2018-07-17T06:09:24.480Z,43.7
2018-07-17T06:10:14.758Z,44.1
2018-07-17T06:11:04.592Z,44.5
2018-07-17T06:11:54.650Z,44.9
2018-07-17T06:12:44.725Z,45.3
2018-07-17T06:13:34.510Z,45.8
2018-07-17T06:14:24.855Z,46.3
2018-07-17T06:15:14.901Z,46.8
2018-07-17T06:16:04.982Z,47.3
2018-07-17T06:16:55.076Z,47.6
2018-07-17T06:17:45.098Z,47.9
2018-07-17T06:18:35.152Z,48.1
2018-07-17T06:19:24.966Z,48.3
2018-07-17T06:20:15.366Z,48.4
2018-07-17T06:21:05.188Z,48.5
2018-07-17T06:21:55.211Z,48.6
2018-07-17T06:22:45.194Z,48.7
2018-07-17T06:23:35.258Z,48.8
2018-07-17T06:24:25.078Z,49
2018-07-17T06:25:15.977Z,49.1
2018-07-17T06:26:05.751Z,49.3
2018-07-17T06:26:55.803Z,49.4
2018-07-17T06:27:45.873Z,49.6
2018-07-17T06:28:35.928Z,49.7
2018-07-17T06:29:26.021Z,49.7
2018-07-17T06:30:15.780Z,49.6
2018-07-17T06:31:05.858Z,49.5
2018-07-17T06:31:56.170Z,49.4
2018-07-17T06:32:46.241Z,49.3
2018-07-17T06:33:36.373Z,49.2
2018-07-17T06:34:26.118Z,49.1
2018-07-17T06:35:16.478Z,49.2
2018-07-17T06:36:06.240Z,49.3
2018-07-17T06:36:56.295Z,49.6
2018-07-17T06:37:46.639Z,49.8
2018-07-17T06:38:36.722Z,50
2018-07-17T06:39:26.498Z,50.1
2018-07-17T06:40:16.554Z,50.1
2018-07-17T06:41:06.625Z,49.9
2018-07-17T06:41:56.951Z,49.8
2018-07-17T06:42:47.018Z,49.7
2018-07-17T06:43:37.117Z,49.4
2018-07-17T06:44:26.883Z,49.3
2018-07-17T06:45:17.260Z,49
2018-07-17T06:46:07.282Z,48.8
2018-07-17T06:46:57.068Z,48.4
2018-07-17T06:47:47.412Z,48.1
2018-07-17T06:48:36.943Z,47.8
2018-07-17T06:49:27.529Z,47.4
2018-07-17T06:50:17.856Z,47.1
2018-07-17T06:51:07.417Z,46.7
2018-07-17T06:51:57.177Z,46.4
2018-07-17T06:52:47.837Z,46.1
2018-07-17T06:53:37.867Z,45.8
2018-07-17T06:54:27.651Z,45.4
2018-07-17T06:55:17.986Z,45.1
2018-07-17T06:56:08.044Z,44.8
2018-07-17T06:56:58.132Z,44.5
2018-07-17T06:57:48.178Z,44.2
2018-07-17T06:58:37.969Z,43.9
2018-07-17T06:59:27.753Z,43.6
2018-07-17T07:00:18.372Z,43.3
2018-07-17T07:01:08.429Z,43.1
2018-07-17T07:01:58.529Z,42.8
2018-07-17T07:02:48.572Z,42.4
2018-07-17T07:03:38.621Z,42.1
2018-07-17T07:04:28.180Z,41.8
2018-07-17T07:05:18.634Z,41.4
2018-07-17T07:06:08.829Z,41.2
2018-07-17T07:06:58.634Z,41
2018-07-17T07:07:48.950Z,40.8
2018-07-17T07:08:38.897Z,40.6
2018-07-17T07:09:29.105Z,40.5
2018-07-17T07:10:19.176Z,40.4
2018-07-17T07:11:09.402Z,40.3
2018-07-17T07:11:59.265Z,40.2
2018-07-17T07:12:48.805Z,40.1
2018-07-17T07:13:39.116Z,39.9
2018-07-17T07:14:29.484Z,39.9
2018-07-17T07:15:19.524Z,39.7
2018-07-17T07:16:09.614Z,39.6
2018-07-17T07:16:59.140Z,39.4
2018-07-17T07:17:49.449Z,39.2
2018-07-17T07:18:39.229Z,39
2018-07-17T07:19:29.859Z,38.8
2018-07-17T07:20:19.947Z,38.6
2018-07-17T07:21:09.992Z,38.4
2018-07-17T07:22:00.082Z,38.3
2018-07-17T07:22:49.835Z,38.1
2018-07-17T07:23:40.196Z,37.9
2018-07-17T07:24:30.244Z,37.8
2018-07-17T07:25:20.081Z,37.7
2018-07-17T07:26:10.427Z,37.5
2018-07-17T07:27:00.428Z,37.4
2018-07-17T07:27:50.528Z,37.3
2018-07-17T07:28:40.603Z,37.1
2018-07-17T07:29:30.628Z,37
2018-07-17T07:30:20.394Z,36.9
2018-07-17T07:31:10.506Z,36.8
2018-07-17T07:32:00.821Z,36.6
2018-07-17T07:32:50.618Z,36.5
2018-07-17T07:33:40.951Z,36.4
2018-07-17T07:34:31.120Z,36.3
2018-07-17T07:35:21.082Z,36.1
2018-07-17T07:36:11.175Z,36
2018-07-17T07:37:01.201Z,35.8
2018-07-17T07:37:51.265Z,35.6
2018-07-17T07:38:40.767Z,35.4
2018-07-17T07:39:31.138Z,35.3
2018-07-17T07:40:21.193Z,35.1
2018-07-17T07:41:11.506Z,34.9
2018-07-17T07:42:01.595Z,34.7
2018-07-17T07:42:52.143Z,34.4
2018-07-17T07:43:41.711Z,34.3
2018-07-17T07:44:31.770Z,34
2018-07-17T07:45:21.864Z,33.8
2018-07-17T07:46:11.632Z,33.5
2018-07-17T07:47:01.406Z,33.3
2018-07-17T07:47:52.071Z,33
2018-07-17T07:48:41.514Z,32.7
2018-07-17T07:49:32.148Z,32.4
2018-07-17T07:50:21.932Z,32.1
2018-07-17T07:51:12.011Z,31.8
2018-07-17T07:52:02.353Z,31.5
2018-07-17T07:52:52.132Z,31.1
2018-07-17T07:53:42.480Z,30.8
2018-07-17T07:54:32.555Z,30.3
2018-07-17T07:55:22.324Z,29.9
2018-07-17T07:56:12.660Z,29.5
2018-07-17T07:57:02.470Z,29.1
2018-07-17T07:57:52.800Z,28.8
2018-07-17T07:58:42.588Z,28.4
2018-07-17T07:59:32.920Z,28.1
2018-07-17T08:00:22.422Z,27.8
2018-07-17T08:01:12.516Z,27.4
2018-07-17T08:02:03.122Z,27.1
2018-07-17T08:02:53.198Z,26.8
2018-07-17T08:03:43.544Z,26.6
2018-07-17T08:04:32.747Z,26.3
2018-07-17T08:05:22.795Z,26.1
2018-07-17T08:06:13.489Z,25.9
2018-07-17T08:07:03.496Z,25.7
2018-07-17T08:07:53.554Z,25.6
2018-07-17T08:08:43.642Z,25.4
2018-07-17T08:09:33.440Z,25.2
2018-07-17T08:10:23.754Z,25.1
2018-07-17T08:11:13.822Z,24.9
2018-07-17T08:12:04.071Z,24.8
2018-07-17T08:12:53.978Z,24.6
2018-07-17T08:13:44.025Z,24.4
2018-07-17T08:14:33.526Z,24.3
2018-07-17T08:15:24.135Z,24.1
2018-07-17T08:16:14.232Z,23.9
2018-07-17T08:17:04.272Z,23.8
2018-07-17T08:17:54.342Z,23.7
2018-07-17T08:18:44.112Z,23.6
2018-07-17T08:19:34.453Z,23.4
2018-07-17T08:20:24.540Z,23.3
2018-07-17T08:21:14.020Z,23.2
2018-07-17T08:22:04.652Z,23
2018-07-17T08:22:54.444Z,22.9
2018-07-17T08:23:44.511Z,22.8
2018-07-17T08:24:34.857Z,22.7
2018-07-17T08:25:24.910Z,22.6
2018-07-17T08:26:14.983Z,22.5
2018-07-17T08:27:05.079Z,22.4
2018-07-17T08:27:55.084Z,22.3
2018-07-17T08:28:44.897Z,22.3
2018-07-17T08:29:35.037Z,22.2
2018-07-17T08:30:25.283Z,22.1
2018-07-17T08:31:15.396Z,22.1
2018-07-17T08:32:05.409Z,22.1
2018-07-17T08:32:55.501Z,22
2018-07-17T08:33:45.551Z,22
2018-07-17T08:34:35.639Z,21.9
2018-07-17T08:35:25.688Z,21.9
2018-07-17T08:36:15.216Z,21.9
2018-07-17T08:37:05.564Z,21.9
2018-07-17T08:37:55.894Z,21.8
2018-07-17T08:38:45.930Z,21.8
2018-07-17T08:39:35.718Z,21.8
2018-07-17T08:40:26.087Z,21.8
2018-07-17T08:41:16.188Z,21.8
2018-07-17T08:42:05.910Z,21.8
2018-07-17T08:42:56.298Z,21.8
2018-07-17T08:43:46.816Z,21.8
2018-07-17T08:44:36.405Z,21.8
2018-07-17T08:45:26.468Z,21.8
2018-07-17T08:46:16.356Z,21.9
2018-07-17T08:47:06.580Z,21.9
2018-07-17T08:47:56.377Z,21.9
2018-07-17T08:48:46.745Z,22
2018-07-17T08:49:36.778Z,22.1
2018-07-17T08:50:26.838Z,22.1
2018-07-17T08:51:16.622Z,22.2
2018-07-17T08:52:06.698Z,22.3
2018-07-17T08:52:57.120Z,22.5
2018-07-17T08:53:47.100Z,22.6
2018-07-17T08:54:37.772Z,22.9
2018-07-17T08:55:27.223Z,23.1
2018-07-17T08:56:17.310Z,23.4
2018-07-17T08:57:07.368Z,23.7
2018-07-17T08:57:57.441Z,24
2018-07-17T08:58:47.190Z,24.4
2018-07-17T08:59:37.280Z,24.8
2018-07-17T09:00:27.877Z,25.3
2018-07-17T09:01:17.118Z,25.7
2018-07-17T09:02:07.464Z,26.1
2018-07-17T09:02:57.543Z,26.6
2018-07-17T09:03:47.595Z,27
2018-07-17T09:04:37.947Z,27.4
2018-07-17T09:05:27.994Z,27.9
2018-07-17T09:06:18.050Z,28.4
2018-07-17T09:07:07.854Z,29
2018-07-17T09:07:58.178Z,29.6
2018-07-17T09:08:48.250Z,30.4
2018-07-17T09:09:38.321Z,31.1
2018-07-17T09:10:28.385Z,31.9
2018-07-17T09:11:18.441Z,32.8
2018-07-17T09:12:08.571Z,33.6
2018-07-17T09:12:58.395Z,34.3
2018-07-17T09:13:48.364Z,35.1
2018-07-17T09:14:38.706Z,35.9
2018-07-17T09:15:28.589Z,36.7
2018-07-17T09:16:18.564Z,37.4
2018-07-17T09:17:08.609Z,38.1
2018-07-17T09:17:58.956Z,38.8
2018-07-17T09:18:49.086Z,39.4
2018-07-17T09:19:39.079Z,40.1
2018-07-17T09:20:28.872Z,40.6
2018-07-17T09:21:19.226Z,41.2
2018-07-17T09:22:09.288Z,41.8
2018-07-17T09:22:59.068Z,42.3
2018-07-17T09:23:49.412Z,42.8
2018-07-17T09:24:38.654Z,43.3
2018-07-17T09:25:29.271Z,43.8
2018-07-17T09:26:19.595Z,44.3
2018-07-17T09:27:09.654Z,44.9
2018-07-17T09:27:59.717Z,45.5
2018-07-17T09:28:49.298Z,46.1
2018-07-17T09:29:39.587Z,46.6
2018-07-17T09:30:29.937Z,47.2
2018-07-17T09:31:20.005Z,47.8
2018-07-17T09:32:10.058Z,48.4
2018-07-17T09:33:00.123Z,49
2018-07-17T09:33:50.185Z,49.6
2018-07-17T09:34:40.234Z,50.3
2018-07-17T09:35:30.305Z,50.9
2018-07-17T09:36:19.820Z,51.5
2018-07-17T09:37:10.145Z,52.2
2018-07-17T09:38:00.502Z,54.1
2018-07-17T09:38:50.770Z,55.1
2018-07-17T09:39:40.628Z,53.8
2018-07-17T09:40:30.704Z,51.1
2018-07-17T09:41:20.752Z,47.4
2018-07-17T09:42:10.835Z,45
2018-07-17T09:43:00.876Z,43.9
2018-07-17T09:43:50.960Z,43.8
2018-07-17T09:44:41.027Z,44.4
2018-07-17T09:45:31.089Z,45.4
2018-07-17T09:46:21.162Z,46.8
2018-07-17T09:47:11.269Z,48.5
2018-07-17T09:48:01.006Z,50.4
2018-07-17T09:48:51.365Z,52.3
2018-07-17T09:49:41.404Z,55.4
2018-07-17T09:50:31.199Z,57.9
2018-07-17T09:51:21.592Z,57.9
2018-07-17T09:52:11.615Z,57.8
2018-07-17T09:53:01.673Z,57.1
2018-07-17T09:53:51.727Z,56.1
2018-07-17T09:54:41.534Z,55.3
2018-07-17T09:55:31.586Z,55.6
2018-07-17T09:56:21.656Z,56.9
2018-07-17T09:57:11.991Z,58.3
2018-07-17T09:58:02.072Z,59.2
2018-07-17T09:58:51.852Z,59.6
2018-07-17T09:59:41.902Z,59.7
2018-07-17T10:00:32.255Z,59.4
2018-07-17T10:01:22.044Z,59.1
2018-07-17T10:02:12.400Z,59.1
2018-07-17T10:03:02.445Z,59.4
2018-07-17T10:03:52.512Z,59.3
2018-07-17T10:04:42.747Z,58.9
2018-07-17T10:05:32.642Z,58.3
2018-07-17T10:06:22.533Z,57.6
2018-07-17T10:07:12.516Z,56.9
2018-07-17T10:08:02.842Z,56.4
2018-07-17T10:08:52.879Z,56.1
2018-07-17T10:09:42.976Z,55.9
2018-07-17T10:10:33.011Z,55.5
2018-07-17T10:11:23.087Z,55
2018-07-17T10:12:13.149Z,54.4
2018-07-17T10:13:03.215Z,53.7
2018-07-17T10:13:53.073Z,53.1
2018-07-17T10:14:43.107Z,52.4
2018-07-17T10:16:23.464Z,51.4
2018-07-17T10:17:13.594Z,50.9
2018-07-17T10:18:03.612Z,50.4
2018-07-17T10:18:53.661Z,49.9
2018-07-17T10:19:43.452Z,49.5
2018-07-17T10:20:33.798Z,49.1
2018-07-17T10:21:23.887Z,48.6
2018-07-17T10:22:13.925Z,47.8
2018-07-17T10:23:03.987Z,46.9
2018-07-17T10:23:54.029Z,46.2
2018-07-17T10:24:44.119Z,45.7
2018-07-17T10:25:34.184Z,45.3
2018-07-17T10:26:24.577Z,45.2
2018-07-17T10:27:14.301Z,45.2
2018-07-17T10:28:04.095Z,45.3
2018-07-17T10:28:54.444Z,45.6
2018-07-17T10:29:44.486Z,46
2018-07-17T10:30:34.547Z,46.5
2018-07-17T10:31:24.692Z,47.1
2018-07-17T10:32:15.384Z,47.6
2018-07-17T10:33:04.753Z,48.3
2018-07-17T10:33:54.803Z,48.9
2018-07-17T10:34:44.913Z,50.3
2018-07-17T10:35:34.927Z,50.8
2018-07-17T10:36:25.000Z,50.6
2018-07-17T10:37:15.073Z,49.9
2018-07-17T10:38:05.154Z,48.8
2018-07-17T10:38:55.203Z,48
2018-07-17T10:39:45.252Z,47.4
2018-07-17T10:40:35.333Z,47.1
2018-07-17T10:41:25.124Z,46.9
2018-07-17T10:42:15.475Z,46.9
2018-07-17T10:43:05.532Z,47.1
2018-07-17T10:43:55.583Z,47.3
2018-07-17T10:44:45.658Z,47.7
2018-07-17T10:45:35.442Z,48.5
2018-07-17T10:46:25.797Z,49.8
2018-07-17T10:47:15.856Z,51.4
2018-07-17T10:48:05.913Z,54
2018-07-17T10:48:55.963Z,55.8
2018-07-17T10:49:46.047Z,56.5
2018-07-17T10:50:36.100Z,56.5
2018-07-17T10:51:26.165Z,55.3
2018-07-17T10:52:16.226Z,53.8
2018-07-17T10:53:06.028Z,52.9
2018-07-17T10:53:56.364Z,52.9
2018-07-17T10:54:46.435Z,53.8
2018-07-17T10:55:36.207Z,54.7
2018-07-17T10:56:26.575Z,55.1
2018-07-17T10:57:16.639Z,55.1
2018-07-17T10:58:06.674Z,55.1
2018-07-17T10:58:56.760Z,55.1
2018-07-17T10:59:46.803Z,55.2
2018-07-17T11:00:36.862Z,55.5
2018-07-17T11:01:26.673Z,55.8
2018-07-17T11:02:16.997Z,55.9
2018-07-17T11:03:07.082Z,56.2
2018-07-17T11:03:57.122Z,56.4
2018-07-17T11:04:47.206Z,56.7
2018-07-17T11:05:37.278Z,56.8
2018-07-17T11:06:27.309Z,57
2018-07-17T11:07:17.405Z,57.4
2018-07-17T11:08:07.465Z,57.9
2018-07-17T11:09:47.314Z,59.2
2018-07-17T11:10:37.643Z,59.8
2018-07-17T11:11:27.155Z,60.2
2018-07-17T11:12:17.762Z,60.5
2018-07-17T11:13:07.822Z,60.7
2018-07-17T11:13:57.644Z,60.8
2018-07-17T11:14:47.992Z,61.1
2018-07-17T11:15:38.026Z,61
2018-07-17T11:16:27.830Z,60.9
2018-07-17T11:17:18.151Z,61
2018-07-17T11:18:08.230Z,60.8
2018-07-17T11:18:58.317Z,60.3
2018-07-17T11:19:48.387Z,59.7
2018-07-17T11:20:38.415Z,59.5
2018-07-17T11:21:28.498Z,59.3
2018-07-17T11:22:18.268Z,59.1
2018-07-17T11:23:08.345Z,58.8
2018-07-17T11:23:58.429Z,58.5
2018-07-17T11:24:48.748Z,58.1
2018-07-17T11:26:28.879Z,57.5
2018-07-17T11:27:18.653Z,57.2
2018-07-17T11:28:09.016Z,57
2018-07-17T11:28:59.073Z,56.9
2018-07-17T11:29:49.157Z,56.8
2018-07-17T11:30:39.209Z,56.7
2018-07-17T11:31:29.001Z,56.6
2018-07-17T11:32:19.063Z,56.4
2018-07-17T11:33:09.128Z,56.1
2018-07-17T11:33:59.450Z,56.2
2018-07-17T11:34:49.245Z,56.5
2018-07-17T11:35:39.576Z,56.8
2018-07-17T11:36:29.647Z,57.1
2018-07-17T11:37:19.714Z,57.1
2018-07-17T11:38:09.308Z,56.9
2018-07-17T11:38:59.835Z,56.9
2018-07-17T11:39:49.902Z,56.9
2018-07-17T11:40:40.019Z,56.8
2018-07-17T11:41:29.760Z,56.6
2018-07-17T11:42:20.101Z,56.4
2018-07-17T11:43:10.182Z,56.2
2018-07-17T11:44:00.242Z,55.9
2018-07-17T11:44:50.287Z,55.8
2018-07-17T11:45:40.371Z,55.6
2018-07-17T11:46:30.423Z,55.5
2018-07-17T11:47:20.217Z,55.3
2018-07-17T11:48:10.552Z,54.9
2018-07-17T11:49:00.613Z,54.6
2018-07-17T11:49:50.411Z,54.3
2018-07-17T11:50:40.822Z,54
2018-07-17T11:51:30.817Z,53.8
2018-07-17T11:52:20.601Z,53.5
2018-07-17T11:53:11.033Z,53.3
2018-07-17T11:54:00.754Z,53.1
2018-07-17T11:54:50.803Z,53
2018-07-17T11:55:40.309Z,52.9
2018-07-17T11:56:31.223Z,52.8
2018-07-17T11:57:21.001Z,52.8
2018-07-17T11:58:10.769Z,52.8
2018-07-17T11:59:02.067Z,52.9
2018-07-17T11:59:50.909Z,52.8
2018-07-17T12:00:41.269Z,52.8
2018-07-17T12:01:31.612Z,52.6
2018-07-17T12:03:11.730Z,52.2
2018-07-17T12:04:01.506Z,51.9
2018-07-17T12:04:51.568Z,51.6
2018-07-17T12:05:41.788Z,51.3
2018-07-17T12:06:31.967Z,50.7
2018-07-17T12:07:22.050Z,49.9
2018-07-17T12:08:12.113Z,49.1
2018-07-17T12:09:02.174Z,48.5
2018-07-17T12:09:51.702Z,47.9
2018-07-17T12:10:42.023Z,47.4
2018-07-17T12:11:32.373Z,46.9
2018-07-17T12:12:22.572Z,46.4
2018-07-17T12:13:12.479Z,46
2018-07-17T12:14:02.553Z,45.6
2018-07-17T12:14:52.614Z,45.3
2018-07-17T12:15:42.707Z,44.9
2018-07-17T12:16:32.476Z,44.6
2018-07-17T12:17:22.802Z,44.4
2018-07-17T12:18:12.592Z,44.2
2018-07-17T12:19:02.971Z,44.1
2018-07-17T12:19:53.194Z,44
2018-07-17T12:20:42.799Z,43.9
2018-07-17T12:21:32.864Z,43.9
2018-07-17T12:22:23.219Z,43.8
2018-07-17T12:23:12.991Z,43.8
2018-07-17T12:24:03.058Z,43.8
2018-07-17T12:24:53.411Z,43.9
2018-07-17T12:25:43.454Z,43.9
2018-07-17T12:26:33.516Z,44
2018-07-17T12:27:23.322Z,44
2018-07-17T12:28:13.663Z,44
2018-07-17T12:29:03.732Z,43.9
2018-07-17T12:29:53.813Z,43.9
2018-07-17T12:30:43.854Z,43.8
2018-07-17T12:31:33.916Z,43.6
2018-07-17T12:32:23.707Z,43.5
2018-07-17T12:33:13.764Z,43.3
2018-07-17T12:34:04.129Z,43.1
2018-07-17T12:34:54.303Z,42.9
2018-07-17T12:35:44.242Z,42.8
2018-07-17T12:36:34.343Z,42.5
2018-07-17T12:37:24.128Z,42.3
2018-07-17T12:38:14.444Z,42.1
2018-07-17T12:39:04.574Z,41.8
2018-07-17T12:39:54.293Z,41.6
2018-07-17T12:40:43.783Z,41.4
2018-07-17T12:41:34.690Z,41.2
2018-07-17T12:42:24.771Z,40.9
2018-07-17T12:43:14.555Z,40.8
2018-07-17T12:44:04.620Z,40.5
2018-07-17T12:44:54.408Z,40.3
2018-07-17T12:45:44.729Z,40.1
2018-07-17T12:46:35.108Z,39.8
2018-07-17T12:47:24.871Z,39.6
2018-07-17T12:48:14.932Z,39.4
2018-07-17T12:49:04.724Z,39.1
2018-07-17T12:49:55.225Z,38.9
2018-07-17T12:50:45.411Z,38.7
2018-07-17T12:51:35.459Z,38.5
2018-07-17T12:52:25.520Z,38.3
2018-07-17T12:53:15.592Z,38.1
2018-07-17T12:54:05.659Z,37.9
2018-07-17T12:54:55.165Z,37.7
2018-07-17T12:55:45.804Z,37.6
2018-07-17T12:56:35.853Z,37.4
2018-07-17T12:57:25.930Z,37.3
2018-07-17T12:58:16.015Z,37.3
2018-07-17T12:59:06.049Z,37.2
2018-07-17T12:59:55.279Z,37.1
2018-07-17T13:00:46.221Z,37.1
2018-07-17T13:01:36.289Z,37
2018-07-17T13:02:26.038Z,37
2018-07-17T13:03:16.389Z,36.9
2018-07-17T13:04:06.172Z,36.9
2018-07-17T13:04:56.517Z,36.8
2018-07-17T13:05:46.011Z,36.6
2018-07-17T13:06:36.369Z,36.4
2018-07-17T13:07:26.737Z,36.2
2018-07-17T13:08:16.482Z,35.9
2018-07-17T13:09:06.579Z,35.6
2018-07-17T13:09:56.915Z,35.3
2018-07-17T13:10:46.964Z,35
2018-07-17T13:11:36.730Z,34.8
2018-07-17T13:12:26.829Z,34.6
2018-07-17T13:13:17.162Z,34.5
2018-07-17T13:14:07.212Z,34.4
2018-07-17T13:14:57.312Z,34.4
2018-07-17T13:15:47.367Z,34.4
2018-07-17T13:16:37.408Z,34.4
2018-07-17T13:17:27.287Z,34.4
2018-07-17T13:18:17.554Z,34.6
2018-07-17T13:19:07.603Z,34.7
2018-07-17T13:19:57.666Z,34.8
2018-07-17T13:20:47.721Z,34.9
2018-07-17T13:21:37.783Z,35
2018-07-17T13:22:27.586Z,35.1
2018-07-17T13:23:17.916Z,35.3
2018-07-17T13:24:07.707Z,35.4
2018-07-17T13:24:58.049Z,35.5
2018-07-17T13:25:48.121Z,35.7
2018-07-17T13:26:38.176Z,35.9
2018-07-17T13:27:28.234Z,36.2
2018-07-17T13:28:18.021Z,36.4
2018-07-17T13:29:08.375Z,36.8
2018-07-17T13:29:58.437Z,37.2
2018-07-17T13:30:48.238Z,37.8
2018-07-17T13:31:38.581Z,38.4
2018-07-17T13:32:28.628Z,39
2018-07-17T13:33:18.427Z,39.5
2018-07-17T13:34:08.766Z,39.9
2018-07-17T13:34:58.843Z,40.3
2018-07-17T13:35:48.889Z,40.6
2018-07-17T13:36:38.968Z,40.8
2018-07-17T13:37:29.019Z,41.1
2018-07-17T13:38:19.133Z,41.3
2018-07-17T13:39:09.357Z,41.4
2018-07-17T13:39:58.952Z,41.5
2018-07-17T13:40:49.313Z,41.6
2018-07-17T13:41:39.352Z,41.7
2018-07-17T13:42:29.137Z,41.9
2018-07-17T13:43:19.496Z,42.1
2018-07-17T13:44:09.277Z,42.4
2018-07-17T13:44:59.354Z,42.5
2018-07-17T13:45:49.662Z,42.5
2018-07-17T13:46:39.461Z,42.5
2018-07-17T13:47:29.803Z,42.6
2018-07-17T13:48:19.586Z,42.6
2018-07-17T13:49:09.933Z,42.7
2018-07-17T13:50:00.170Z,42.8
2018-07-17T13:50:50.088Z,42.8
2018-07-17T13:51:40.125Z,42.8
2018-07-17T13:52:29.923Z,42.8
2018-07-17T13:53:20.255Z,42.8
2018-07-17T13:54:10.313Z,42.8
2018-07-17T13:55:00.390Z,42.8
2018-07-17T13:55:50.468Z,42.8
2018-07-17T13:56:40.519Z,42.8
2018-07-17T13:57:30.593Z,42.8
2018-07-17T13:58:20.366Z,42.9
2018-07-17T13:59:10.759Z,42.9
2018-07-17T14:00:00.998Z,42.9
2018-07-17T14:00:50.853Z,42.9
2018-07-17T14:01:40.892Z,43.1
2018-07-17T14:02:31.180Z,43.4
2018-07-17T14:03:20.749Z,43.9
2018-07-17T14:04:11.105Z,44.4
2018-07-17T14:05:01.174Z,44.8
2018-07-17T14:05:51.236Z,45.1
2018-07-17T14:06:41.011Z,45.3
2018-07-17T14:07:31.354Z,45.4
2018-07-17T14:08:21.409Z,45.5
2018-07-17T14:09:11.186Z,45.4
2018-07-17T14:10:01.282Z,45.3
2018-07-17T14:10:51.611Z,45.1
2018-07-17T14:11:40.827Z,45
2018-07-17T14:12:31.476Z,44.9
2018-07-17T14:13:21.582Z,44.8
2018-07-17T14:14:11.888Z,44.7
2018-07-17T14:15:02.008Z,44.5
2018-07-17T14:15:51.991Z,44.4
2018-07-17T14:16:41.527Z,44.2
2018-07-17T14:17:32.631Z,44
2018-07-17T14:18:21.959Z,43.8
2018-07-17T14:19:12.281Z,43.6
2018-07-17T14:20:02.322Z,43.5
2018-07-17T14:20:51.932Z,43.4
2018-07-17T14:21:42.449Z,43.3
2018-07-17T14:22:32.256Z,43.2
2018-07-17T14:23:22.030Z,43.1
2018-07-17T14:24:12.643Z,43
2018-07-17T14:25:02.731Z,42.9
2018-07-17T14:25:52.788Z,42.8
2018-07-17T14:26:42.566Z,42.6
2018-07-17T14:27:32.897Z,42.4
2018-07-17T14:28:22.989Z,42.3
2018-07-17T14:29:13.024Z,42.1
2018-07-17T14:30:02.843Z,41.9
2018-07-17T14:30:52.888Z,41.6
2018-07-17T14:31:43.280Z,41.4
2018-07-17T14:32:33.335Z,41.2
2018-07-17T14:33:23.360Z,40.9
2018-07-17T14:34:13.406Z,40.8
2018-07-17T14:35:03.198Z,40.5
2018-07-17T14:35:53.662Z,40.3
2018-07-17T14:36:43.611Z,40.1
2018-07-17T14:37:33.678Z,39.9
2018-07-17T14:38:23.453Z,39.7
2018-07-17T14:39:13.797Z,39.5
2018-07-17T14:40:03.870Z,39.3
2018-07-17T14:40:53.663Z,39.2
2018-07-17T14:41:44.283Z,39
2018-07-17T14:42:33.805Z,38.9
2018-07-17T14:43:24.121Z,38.8
2018-07-17T14:44:13.920Z,38.7
2018-07-17T14:45:03.965Z,38.6
2018-07-17T14:45:54.331Z,38.4
2018-07-17T14:46:44.091Z,38.4
2018-07-17T14:47:34.438Z,38.4
2018-07-17T14:48:24.993Z,38.3
2018-07-17T14:49:14.632Z,38.3
2018-07-17T14:50:04.652Z,38.3
2018-07-17T14:50:54.431Z,38.2
2018-07-17T14:51:44.779Z,38.3
2018-07-17T14:52:34.560Z,38.3
2018-07-17T14:53:24.930Z,38.3
2018-07-17T14:54:14.754Z,38.4
2018-07-17T14:55:05.052Z,38.5
2018-07-17T14:55:54.821Z,38.6
2018-07-17T14:56:45.142Z,38.7
2018-07-17T14:57:35.236Z,38.8
2018-07-17T14:58:25.288Z,38.8
2018-07-17T14:59:15.344Z,38.9
2018-07-17T15:00:05.337Z,38.9
2018-07-17T15:00:55.485Z,38.9
2018-07-17T15:01:45.539Z,38.9
2018-07-17T15:02:35.678Z,38.9
2018-07-17T15:03:25.390Z,38.9
2018-07-17T15:04:15.737Z,38.8
2018-07-17T15:05:05.808Z,38.8
2018-07-17T15:05:55.866Z,38.7
2018-07-17T15:06:45.934Z,38.6
2018-07-17T15:07:35.436Z,38.6
2018-07-17T15:08:25.904Z,38.5
2018-07-17T15:09:16.131Z,38.4
2018-07-17T15:10:06.201Z,38.4
2018-07-17T15:10:55.981Z,38.3
2018-07-17T15:11:46.320Z,38.3
2018-07-17T15:12:36.450Z,38.2
2018-07-17T15:13:26.451Z,38.1
2018-07-17T15:14:16.511Z,38.1
2018-07-17T15:15:06.308Z,37.9
2018-07-17T15:15:56.262Z,37.9
2018-07-17T15:16:46.734Z,37.8
2018-07-17T15:17:36.771Z,37.7
2018-07-17T15:18:26.855Z,37.6
2018-07-17T15:19:16.933Z,37.4
2018-07-17T15:20:06.964Z,37.3
2018-07-17T15:20:57.052Z,37.2
2018-07-17T15:21:47.160Z,37.1
2018-07-17T15:22:37.165Z,37
2018-07-17T15:23:26.948Z,36.9
2018-07-17T15:24:17.320Z,36.9
2018-07-17T15:25:07.350Z,36.8
2018-07-17T15:25:57.151Z,36.8
2018-07-17T15:26:47.484Z,36.6
2018-07-17T15:27:37.289Z,36.6
2018-07-17T15:28:27.343Z,36.5
2018-07-17T15:29:17.714Z,36.4
2018-07-17T15:30:07.733Z,36.3
2018-07-17T15:30:57.540Z,36.1
2018-07-17T15:31:47.586Z,36.1
2018-07-17T15:32:37.921Z,35.9
2018-07-17T15:33:27.990Z,35.8
2018-07-17T15:34:17.777Z,35.7
2018-07-17T15:35:08.417Z,35.6
2018-07-17T15:35:58.205Z,35.5
2018-07-17T15:36:48.246Z,35.4
2018-07-17T15:37:37.479Z,35.3
2018-07-17T15:38:28.664Z,35.2
2018-07-17T15:39:18.435Z,35.1
2018-07-17T15:40:08.499Z,35
2018-07-17T15:40:58.587Z,34.9
2018-07-17T15:41:48.347Z,34.9
2018-07-17T15:42:38.431Z,34.8
2018-07-17T15:43:28.766Z,34.7
2018-07-17T15:44:18.831Z,34.6
2018-07-17T15:45:08.891Z,34.6
2018-07-17T15:45:58.713Z,34.4
2018-07-17T15:46:49.022Z,34.4
2018-07-17T15:47:39.107Z,34.3
2018-07-17T15:48:28.892Z,34.3
2018-07-17T15:49:19.236Z,34.2
2018-07-17T15:50:09.280Z,34.1
2018-07-17T15:50:59.340Z,34
2018-07-17T15:51:49.410Z,33.9
2018-07-17T15:52:39.201Z,33.8
2018-07-17T15:53:29.543Z,33.6
2018-07-17T15:54:19.609Z,33.6
2018-07-17T15:55:09.401Z,33.4
2018-07-17T15:55:59.185Z,33.3
2018-07-17T15:56:49.799Z,33.2
2018-07-17T15:57:39.907Z,33.1
2018-07-17T15:58:29.923Z,32.9
2018-07-17T15:59:19.998Z,32.8
2018-07-17T16:00:10.054Z,32.7
2018-07-17T16:01:00.152Z,32.6
2018-07-17T16:01:49.906Z,32.4
2018-07-17T16:02:40.239Z,32.3
2018-07-17T16:03:30.297Z,32.2
2018-07-17T16:04:20.085Z,32.1
2018-07-17T16:05:10.456Z,31.9
2018-07-17T16:06:00.519Z,31.8
2018-07-17T16:06:50.551Z,31.6
2018-07-17T16:07:40.649Z,31.5
2018-07-17T16:08:30.682Z,31.3
2018-07-17T16:09:20.747Z,31.1
2018-07-17T16:10:11.065Z,30.9
2018-07-17T16:11:00.876Z,30.8
2018-07-17T16:11:50.942Z,30.6
2018-07-17T16:12:41.009Z,30.4
2018-07-17T16:13:32.021Z,30.3
2018-07-17T16:14:24.444Z,30.1
2018-07-17T16:15:11.197Z,29.9
2018-07-17T16:16:00.982Z,29.8
2018-07-17T16:16:51.329Z,29.7
2018-07-17T16:17:41.407Z,29.5
2018-07-17T16:18:31.461Z,29.4
2018-07-17T16:19:21.529Z,29.3
2018-07-17T16:20:11.786Z,29.1
2018-07-17T16:21:01.512Z,29
2018-07-17T16:21:51.188Z,28.8
2018-07-17T16:22:41.805Z,28.7
2018-07-17T16:23:31.843Z,28.6
2018-07-17T16:24:21.903Z,28.4
2018-07-17T16:25:11.978Z,28.3
2018-07-17T16:26:01.772Z,28.3
2018-07-17T16:26:51.821Z,28.1
2018-07-17T16:27:41.898Z,28
2018-07-17T16:28:31.407Z,27.9
2018-07-17T16:30:12.375Z,27.7
2018-07-17T16:31:02.443Z,27.6
2018-07-17T16:31:52.540Z,27.5
2018-07-17T16:32:42.566Z,27.4
2018-07-17T16:33:32.639Z,27.3
2018-07-17T16:34:22.683Z,27.3
2018-07-17T16:35:12.480Z,27.1
2018-07-17T16:36:02.814Z,27.1
2018-07-17T16:36:52.785Z,26.9
2018-07-17T16:37:42.671Z,26.9
2018-07-17T16:38:33.002Z,26.8
2018-07-17T16:39:23.065Z,26.7
2018-07-17T16:40:13.146Z,26.6
2018-07-17T16:41:03.217Z,26.6
2018-07-17T16:41:53.247Z,26.5
2018-07-17T16:42:43.334Z,26.4
2018-07-17T16:43:33.414Z,26.3
2018-07-17T16:44:23.454Z,26.3
2018-07-17T16:45:13.502Z,26.1
2018-07-17T16:46:03.594Z,26.1
2018-07-17T16:46:53.638Z,26
2018-07-17T16:47:42.955Z,25.9
2018-07-17T16:48:33.519Z,25.9
2018-07-17T16:49:23.275Z,25.8
2018-07-17T16:50:13.892Z,25.7
2018-07-17T16:51:03.964Z,25.6
2018-07-17T16:51:53.750Z,25.6
2018-07-17T16:52:44.099Z,25.5
2018-07-17T16:53:33.874Z,25.4
2018-07-17T16:54:24.246Z,25.4
2018-07-17T16:55:14.270Z,25.3
2018-07-17T16:56:04.357Z,25.3
2018-07-17T16:56:54.131Z,25.2
2018-07-17T16:57:43.931Z,25.1
2018-07-17T16:58:34.282Z,25
2018-07-17T16:59:24.066Z,25
2018-07-17T17:00:14.679Z,24.9
2018-07-17T17:01:04.746Z,24.8
2018-07-17T17:01:54.807Z,24.8
2018-07-17T17:02:44.865Z,24.8
2018-07-17T17:03:34.916Z,24.7
2018-07-17T17:04:24.979Z,24.6
2018-07-17T17:05:14.556Z,24.6
2018-07-17T17:06:05.135Z,24.5
2018-07-17T17:06:55.174Z,24.4
2018-07-17T17:07:45.227Z,24.4
2018-07-17T17:08:35.307Z,24.4
2018-07-17T17:09:25.104Z,24.3
2018-07-17T17:10:15.153Z,24.3
2018-07-17T17:11:05.232Z,24.3
2018-07-17T17:11:55.277Z,24.3
2018-07-17T17:12:45.614Z,24.2
2018-07-17T17:13:35.705Z,24.2
2018-07-17T17:14:25.758Z,24.1